createdAt,value
2022-11-02T00:00:31.611Z,5.93
2022-11-02T00:02:59.617Z,6.07
2022-11-02T00:05:27.713Z,6.87
2022-11-02T00:07:56.279Z,6.90
2022-11-02T00:10:25.224Z,6.10
2022-11-02T00:12:53.427Z,6.00
2022-11-02T00:15:23.681Z,6.53
2022-11-02T00:17:57.811Z,6.53
2022-11-02T00:20:26.277Z,6.77
2022-11-02T00:22:57.025Z,6.00
2022-11-02T00:25:26.546Z,5.73
2022-11-02T00:27:54.305Z,6.10
2022-11-02T00:30:23.471Z,5.73
2022-11-02T00:32:51.830Z,5.87
2022-11-02T00:35:19.533Z,5.90
2022-11-02T00:37:47.385Z,5.53
2022-11-02T00:40:15.071Z,6.43
2022-11-02T00:42:42.776Z,5.57
2022-11-02T00:45:11.153Z,5.53
2022-11-02T00:47:40.245Z,5.53
2022-11-02T00:50:09.054Z,5.60
2022-11-02T00:52:36.771Z,5.40
2022-11-02T00:55:04.799Z,5.40
2022-11-02T00:57:32.518Z,7.87
2022-11-02T01:00:00.222Z,6.17
2022-11-02T01:02:28.150Z,5.33
2022-11-02T01:04:57.387Z,5.70
2022-11-02T01:07:25.091Z,5.13
2022-11-02T01:09:52.805Z,4.73
2022-11-02T01:12:20.513Z,5.23
2022-11-02T01:14:48.823Z,5.30
2022-11-02T01:17:16.737Z,4.73
2022-11-02T01:19:44.598Z,4.60
2022-11-02T01:22:13.606Z,4.97
2022-11-02T01:24:41.336Z,5.03
2022-11-02T01:27:09.076Z,5.03
2022-11-02T01:29:36.798Z,4.83
2022-11-02T01:32:04.689Z,4.50
2022-11-02T01:34:32.401Z,4.80
2022-11-02T01:37:00.139Z,4.40
2022-11-02T01:39:29.216Z,3.93
2022-11-02T01:41:56.896Z,4.43
2022-11-02T01:44:30.066Z,4.10
2022-11-02T01:47:02.718Z,4.10
2022-11-02T01:49:33.496Z,4.17
2022-11-02T01:52:06.895Z,4.40
2022-11-02T01:54:40.676Z,3.97
2022-11-02T01:57:10.938Z,4.03
2022-11-02T01:59:44.006Z,4.43
2022-11-02T02:02:18.055Z,4.40
2022-11-02T02:04:48.931Z,4.30
2022-11-02T02:07:17.323Z,4.27
2022-11-02T02:09:50.275Z,4.20
2022-11-02T02:12:19.592Z,3.90
2022-11-02T02:14:47.708Z,3.87
2022-11-02T02:17:33.051Z,4.30
2022-11-02T02:20:06.245Z,3.63
2022-11-02T02:23:14.434Z,3.87
2022-11-02T02:26:20.065Z,3.57
2022-11-02T02:28:54.612Z,3.40
2022-11-02T02:31:26.870Z,3.47
2022-11-02T02:33:59.385Z,3.40
2022-11-02T02:36:31.974Z,3.83
2022-11-02T02:39:03.485Z,3.70
2022-11-02T02:41:39.913Z,3.80
2022-11-02T02:44:11.936Z,3.10
2022-11-02T02:46:45.432Z,3.43
2022-11-02T02:49:19.986Z,3.23
2022-11-02T02:51:48.663Z,3.17
2022-11-02T02:54:21.276Z,3.47
2022-11-02T02:56:55.799Z,3.40
2022-11-02T02:59:28.456Z,3.90
2022-11-02T03:01:58.192Z,3.60
2022-11-02T03:04:26.716Z,3.47
2022-11-02T03:06:58.092Z,3.50
2022-11-02T03:09:33.665Z,3.07
2022-11-02T03:12:08.776Z,3.50
2022-11-02T03:14:45.496Z,3.67
2022-11-02T03:17:18.778Z,3.53
2022-11-02T03:19:52.532Z,3.40
2022-11-02T03:22:28.412Z,3.47
2022-11-02T03:25:01.271Z,3.47
2022-11-02T03:27:37.384Z,3.67
2022-11-02T03:30:10.936Z,3.63
2022-11-02T03:32:47.709Z,3.20
2022-11-02T03:35:20.801Z,3.07
2022-11-02T03:37:53.714Z,3.90
2022-11-02T03:40:26.338Z,3.47
2022-11-02T03:42:55.358Z,3.57
2022-11-02T03:45:28.010Z,3.83
2022-11-02T03:47:59.936Z,3.97
2022-11-02T03:50:27.955Z,3.43
2022-11-02T03:52:58.825Z,3.83
2022-11-02T03:55:31.859Z,3.63
2022-11-02T03:58:00.169Z,4.03
2022-11-02T04:00:33.791Z,3.20
2022-11-02T04:03:04.158Z,3.50
2022-11-02T04:05:33.552Z,3.87
2022-11-02T04:08:19.430Z,3.23
2022-11-02T04:11:04.918Z,3.90
2022-11-02T04:13:50.315Z,3.37
2022-11-02T04:16:23.666Z,3.67
2022-11-02T04:19:13.343Z,3.13
2022-11-02T04:21:41.129Z,3.70
2022-11-02T04:24:27.009Z,3.60
2022-11-02T04:26:54.730Z,3.20
2022-11-02T04:29:22.406Z,3.33
2022-11-02T04:31:51.450Z,3.40
2022-11-02T04:34:18.151Z,3.60
2022-11-02T04:36:45.871Z,3.30
2022-11-02T04:39:12.614Z,3.03
2022-11-02T04:41:43.009Z,3.40
2022-11-02T04:44:11.815Z,2.97
2022-11-02T04:46:40.285Z,3.70
2022-11-02T04:49:10.115Z,2.97
2022-11-02T04:51:40.204Z,3.10
2022-11-02T04:54:08.164Z,3.17
2022-11-02T04:56:35.898Z,2.63
2022-11-02T04:59:03.612Z,3.07
2022-11-02T05:01:31.501Z,2.73
2022-11-02T05:03:59.342Z,3.27
2022-11-02T05:06:28.354Z,2.93
2022-11-02T05:08:56.573Z,3.07
2022-11-02T05:11:24.379Z,3.60
2022-11-02T05:13:52.095Z,3.20
2022-11-02T05:16:19.844Z,3.07
2022-11-02T05:18:47.544Z,3.17
2022-11-02T05:21:15.252Z,3.07
2022-11-02T05:23:44.290Z,2.80
2022-11-02T05:26:13.334Z,3.20
2022-11-02T05:28:41.057Z,3.07
2022-11-02T05:31:08.814Z,3.10
2022-11-02T05:33:37.713Z,3.40
2022-11-02T05:36:06.010Z,3.40
2022-11-02T05:38:33.912Z,3.40
2022-11-02T05:41:02.961Z,3.23
2022-11-02T05:43:31.596Z,3.13
2022-11-02T05:46:01.167Z,3.30
2022-11-02T05:48:32.043Z,2.70
2022-11-02T05:51:01.493Z,2.83
2022-11-02T05:53:31.657Z,2.87
2022-11-02T05:56:00.160Z,2.97
2022-11-02T05:58:30.130Z,3.17
2022-11-02T06:01:00.374Z,3.33
2022-11-02T06:03:28.414Z,3.13
2022-11-02T06:05:59.242Z,3.60
2022-11-02T06:08:27.866Z,2.80
2022-11-02T06:10:55.773Z,3.13
2022-11-02T06:13:23.631Z,3.47
2022-11-02T06:15:52.681Z,3.40
2022-11-02T06:18:20.383Z,3.40
2022-11-02T06:20:48.077Z,3.30
2022-11-02T06:23:18.047Z,3.27
2022-11-02T06:25:51.628Z,2.80
2022-11-02T06:28:19.492Z,3.07
2022-11-02T06:30:47.195Z,2.83
2022-11-02T06:33:16.638Z,3.10
2022-11-02T06:35:45.827Z,3.83
2022-11-02T06:38:13.594Z,2.87
2022-11-02T06:40:41.354Z,2.80
2022-11-02T06:43:16.577Z,3.67
2022-11-02T06:45:45.248Z,2.90
2022-11-02T06:48:12.943Z,3.00
2022-11-02T06:50:41.988Z,2.57
2022-11-02T06:53:09.720Z,2.60
2022-11-02T06:55:37.382Z,3.30
2022-11-02T06:58:05.407Z,2.90
2022-11-02T07:00:33.222Z,2.80
2022-11-02T07:03:02.164Z,2.60
2022-11-02T07:05:30.421Z,2.97
2022-11-02T07:07:59.518Z,3.03
2022-11-02T07:10:28.000Z,2.93
2022-11-02T07:12:56.961Z,3.10
2022-11-02T07:15:27.137Z,2.97
2022-11-02T07:17:55.263Z,2.93
2022-11-02T07:20:23.290Z,2.30
2022-11-02T07:22:54.663Z,2.77
2022-11-02T07:25:24.074Z,2.87
2022-11-02T07:27:51.842Z,2.70
2022-11-02T07:30:19.718Z,2.73
2022-11-02T07:32:47.944Z,2.67
2022-11-02T07:35:17.439Z,2.87
2022-11-02T07:37:45.749Z,2.60
2022-11-02T07:40:15.096Z,2.67
2022-11-02T07:42:47.432Z,2.63
2022-11-02T07:45:15.361Z,2.40
2022-11-02T07:47:44.690Z,2.47
2022-11-02T07:50:12.592Z,3.17
2022-11-02T07:52:47.905Z,2.87
2022-11-02T07:55:16.424Z,2.60
2022-11-02T07:57:44.455Z,2.50
2022-11-02T08:00:14.039Z,2.50
2022-11-02T08:02:41.820Z,2.47
2022-11-02T08:05:10.072Z,2.53
2022-11-02T08:07:37.835Z,2.10
2022-11-02T08:10:06.476Z,2.53
2022-11-02T08:12:34.194Z,2.40
2022-11-02T08:15:07.222Z,5.00
2022-11-02T08:17:36.677Z,2.80
2022-11-02T08:20:04.793Z,2.47
2022-11-02T08:22:32.498Z,2.30
2022-11-02T08:25:00.309Z,2.27
2022-11-02T08:27:28.075Z,2.30
2022-11-02T08:29:55.966Z,2.20
2022-11-02T08:32:23.650Z,2.70
2022-11-02T08:34:52.643Z,2.80
2022-11-02T08:37:20.343Z,2.43
2022-11-02T08:39:48.559Z,2.47
2022-11-02T08:42:16.243Z,2.43
2022-11-02T08:44:43.922Z,2.67
2022-11-02T08:47:11.681Z,2.20
2022-11-02T08:49:39.370Z,2.67
2022-11-02T08:52:08.524Z,2.70
2022-11-02T08:54:36.257Z,2.60
2022-11-02T08:57:04.131Z,2.30
2022-11-02T08:59:31.935Z,2.60
2022-11-02T09:01:59.817Z,2.80
2022-11-02T09:04:27.618Z,2.50
2022-11-02T09:06:55.390Z,2.53
2022-11-02T09:09:24.403Z,2.20
2022-11-02T09:11:52.120Z,2.70
2022-11-02T09:14:19.889Z,2.50
2022-11-02T09:16:47.651Z,2.60
2022-11-02T09:19:15.325Z,2.30
2022-11-02T09:21:43.056Z,2.20
2022-11-02T09:24:11.164Z,2.00
2022-11-02T09:26:40.260Z,2.55
2022-11-02T09:29:07.941Z,2.50
2022-11-02T09:31:35.644Z,2.40
2022-11-02T09:34:03.323Z,2.33
2022-11-02T09:36:31.017Z,2.13
2022-11-02T09:38:58.697Z,2.60
2022-11-02T09:41:34.722Z,2.20
2022-11-02T09:44:08.556Z,2.30
2022-11-02T09:46:40.446Z,2.80
2022-11-02T09:49:13.414Z,2.13
2022-11-02T09:51:45.443Z,2.50
2022-11-02T09:54:19.146Z,2.00
2022-11-02T09:56:48.003Z,2.55
2022-11-02T09:59:18.743Z,2.63
2022-11-02T10:02:02.639Z,1.88
2022-11-02T10:05:03.919Z,1.95
2022-11-02T10:07:46.421Z,2.22
2022-11-02T10:10:18.799Z,2.03
2022-11-02T10:12:54.725Z,2.10
2022-11-02T10:15:28.951Z,2.20
2022-11-02T10:17:59.356Z,2.20
2022-11-02T10:20:28.817Z,2.20
2022-11-02T10:23:03.461Z,2.55
2022-11-02T10:25:31.533Z,2.22
2022-11-02T10:28:04.712Z,2.40
2022-11-02T10:30:33.795Z,2.63
2022-11-02T10:33:01.608Z,2.20
2022-11-02T10:36:12.055Z,2.65
2022-11-02T10:38:36.913Z,2.40
2022-11-02T10:41:23.846Z,1.95
2022-11-02T10:44:18.592Z,2.50
2022-11-02T10:46:59.659Z,2.30
2022-11-02T10:49:48.217Z,2.20
2022-11-02T10:52:17.892Z,2.72
2022-11-02T10:54:45.685Z,1.90
2022-11-02T10:57:14.923Z,3.05
2022-11-02T10:59:42.628Z,2.20
2022-11-02T11:02:14.845Z,2.38
2022-11-02T11:04:43.767Z,2.95
2022-11-02T11:07:17.712Z,2.58
2022-11-02T11:09:52.505Z,2.13
2022-11-02T11:12:25.690Z,2.20
2022-11-02T11:20:36.133Z,2.28
2022-11-02T11:23:17.984Z,2.05
2022-11-02T11:25:55.813Z,2.20
2022-11-02T11:28:25.862Z,2.30
2022-11-02T11:31:05.901Z,2.30
2022-11-02T11:33:43.124Z,2.35
2022-11-02T11:36:11.835Z,2.17
2022-11-02T11:38:49.182Z,2.17
2022-11-02T11:41:17.975Z,2.47
2022-11-02T11:43:47.471Z,2.30
2022-11-02T11:46:16.558Z,2.40
2022-11-02T11:48:48.860Z,2.25
2022-11-02T11:51:34.426Z,2.28
2022-11-02T11:54:20.120Z,2.33
2022-11-02T11:56:48.566Z,2.50
2022-11-02T11:59:25.513Z,2.42
2022-11-02T12:01:57.939Z,2.10
2022-11-02T12:04:33.296Z,1.90
2022-11-02T12:07:16.790Z,2.08
2022-11-02T12:09:52.113Z,2.00
2022-11-02T12:12:28.418Z,2.50
2022-11-02T12:15:07.509Z,2.10
2022-11-02T12:18:04.137Z,2.13
2022-11-02T12:20:46.146Z,2.30
2022-11-02T12:23:28.796Z,2.58
2022-11-02T12:26:07.070Z,1.90
2022-11-02T12:28:43.789Z,2.22
2022-11-02T12:31:23.834Z,2.00
2022-11-02T12:34:10.187Z,2.38
2022-11-02T12:37:31.638Z,2.35
2022-11-02T12:39:56.169Z,1.95
2022-11-02T12:42:29.526Z,2.65
2022-11-02T12:45:09.494Z,2.00
2022-11-02T12:47:48.485Z,2.25
2022-11-02T12:50:25.923Z,2.28
2022-11-02T12:53:05.382Z,2.15
2022-11-02T12:55:39.027Z,2.00
2022-11-02T12:58:08.889Z,2.10
2022-11-02T13:00:40.082Z,2.35
2022-11-02T13:03:17.136Z,2.17
2022-11-02T13:05:54.124Z,2.17
2022-11-02T13:08:26.274Z,1.80
2022-11-02T13:10:58.374Z,2.38
2022-11-02T13:13:33.200Z,1.83
2022-11-02T13:16:02.159Z,1.90
2022-11-02T13:18:33.780Z,2.22
2022-11-02T13:21:04.296Z,1.73
2022-11-02T13:23:39.312Z,1.70
2022-11-02T13:26:14.718Z,1.88
2022-11-02T13:28:45.609Z,1.75
2022-11-02T13:31:17.973Z,1.75
2022-11-02T13:33:49.279Z,1.90
2022-11-02T13:36:17.310Z,1.73
2022-11-02T13:38:52.359Z,1.77
2022-11-02T13:41:41.880Z,2.13
2022-11-02T13:44:39.414Z,1.90
2022-11-02T13:47:29.663Z,1.60
2022-11-02T13:49:59.587Z,2.20
2022-11-02T13:52:38.406Z,1.77
2022-11-02T13:55:10.672Z,2.15
2022-11-02T13:57:41.573Z,1.63
2022-11-02T14:00:30.570Z,1.83
2022-11-02T14:03:06.870Z,1.48
2022-11-02T14:05:36.741Z,1.80
2022-11-02T14:08:08.931Z,1.88
2022-11-02T14:10:40.452Z,1.85
2022-11-02T14:13:13.872Z,1.55
2022-11-02T14:15:43.242Z,1.73
2022-11-02T14:18:14.498Z,1.83
2022-11-02T14:20:44.284Z,2.00
2022-11-02T14:23:40.482Z,1.50
2022-11-02T14:26:34.286Z,1.63
2022-11-02T14:29:26.436Z,1.58
2022-11-02T14:32:04.103Z,1.52
2022-11-02T14:34:52.731Z,1.67
2022-11-02T14:37:59.715Z,1.40
2022-11-02T14:40:35.543Z,1.60
2022-11-02T14:43:26.456Z,1.83
2022-11-02T14:46:09.300Z,1.63
2022-11-02T14:48:47.644Z,1.60
2022-11-02T14:51:20.495Z,2.20
2022-11-02T14:53:50.055Z,1.80
2022-11-02T14:56:17.864Z,1.60
2022-11-02T14:58:53.396Z,1.60
2022-11-02T15:01:21.552Z,1.48
2022-11-02T15:03:51.878Z,1.30
2022-11-02T15:06:24.011Z,1.85
2022-11-02T15:08:54.729Z,1.63
2022-11-02T15:11:45.644Z,2.10
2022-11-02T15:14:33.486Z,2.15
2022-11-02T15:17:01.340Z,1.75
2022-11-02T15:19:40.544Z,1.75
2022-11-02T15:22:37.832Z,1.85
2022-11-02T15:25:13.459Z,2.25
2022-11-02T15:27:44.379Z,2.00
2022-11-02T15:30:15.725Z,1.70
2022-11-02T15:32:47.535Z,1.88
2022-11-02T15:35:21.476Z,2.05
2022-11-02T15:38:16.079Z,1.80
2022-11-02T15:40:48.661Z,2.00
2022-11-02T15:43:36.828Z,2.05
2022-11-02T15:46:14.782Z,1.70
2022-11-02T15:48:50.867Z,1.85
2022-11-02T15:51:26.028Z,1.90
2022-11-02T15:54:11.093Z,1.60
2022-11-02T15:56:50.194Z,1.57
2022-11-02T15:59:40.216Z,1.63
2022-11-02T16:02:22.147Z,1.90
2022-11-02T16:04:52.886Z,2.20
2022-11-02T16:07:23.987Z,1.90
2022-11-02T16:09:53.909Z,2.10
2022-11-02T16:12:22.915Z,3.47
2022-11-02T16:14:57.702Z,2.13
2022-11-02T16:17:27.049Z,1.93
2022-11-02T16:20:10.269Z,2.10
2022-11-02T16:22:41.129Z,1.93
2022-11-02T16:25:12.706Z,1.90
2022-11-02T16:27:40.720Z,1.77
2022-11-02T16:30:18.001Z,1.40
2022-11-02T16:32:48.204Z,1.90
2022-11-02T16:35:17.144Z,2.13
2022-11-02T16:37:46.555Z,1.80
2022-11-02T16:40:18.343Z,1.70
2022-11-02T16:42:47.564Z,1.80
2022-11-02T16:45:32.004Z,2.00
2022-11-02T16:47:59.820Z,2.00
2022-11-02T16:50:28.893Z,1.97
2022-11-02T16:53:01.243Z,1.87
2022-11-02T16:55:40.961Z,1.93
2022-11-02T16:58:15.916Z,2.60
2022-11-02T17:00:55.225Z,1.80
2022-11-02T17:03:26.561Z,4.53
2022-11-02T17:05:55.222Z,3.43
2022-11-02T17:08:30.276Z,2.20
2022-11-02T17:11:00.101Z,1.97
2022-11-02T17:13:29.993Z,2.27
2022-11-02T17:16:05.143Z,2.10
2022-11-02T17:18:32.859Z,1.90
2022-11-02T17:21:24.059Z,1.90
2022-11-02T17:23:53.758Z,2.07
2022-11-02T17:26:28.366Z,2.60
2022-11-02T17:28:57.192Z,3.27
2022-11-02T17:31:28.555Z,3.00
2022-11-02T17:33:59.587Z,2.90
2022-11-02T17:36:28.086Z,2.87
2022-11-02T17:39:04.867Z,2.73
2022-11-02T17:41:50.515Z,2.93
2022-11-02T17:44:18.586Z,2.63
2022-11-02T17:46:46.357Z,3.00
2022-11-02T17:49:14.135Z,2.87
2022-11-02T17:51:42.614Z,3.20
2022-11-02T17:54:14.261Z,3.00
2022-11-02T17:56:42.521Z,2.90
2022-11-02T17:59:10.575Z,3.10
2022-11-02T18:01:38.590Z,3.00
2022-11-02T18:04:06.365Z,3.70
2022-11-02T18:06:34.137Z,3.83
2022-11-02T18:09:18.855Z,3.87
2022-11-02T18:11:48.291Z,3.77
2022-11-02T18:14:17.121Z,3.73
2022-11-02T18:16:45.554Z,4.70
2022-11-02T18:19:13.701Z,4.20
2022-11-02T18:21:41.520Z,3.90
2022-11-02T18:24:09.306Z,3.43
2022-11-02T18:26:37.035Z,3.47
2022-11-02T18:29:06.314Z,3.60
2022-11-02T18:31:36.052Z,3.67
2022-11-02T18:34:04.095Z,3.20
2022-11-02T18:36:31.905Z,3.03
2022-11-02T18:38:59.742Z,2.70
2022-11-02T18:41:34.999Z,3.30
2022-11-02T18:44:10.216Z,2.90
2022-11-02T18:46:39.613Z,2.80
2022-11-02T18:49:07.368Z,3.00
2022-11-02T18:51:35.126Z,3.10
2022-11-02T18:54:05.186Z,4.03
2022-11-02T18:56:33.227Z,3.03
2022-11-02T18:59:01.143Z,3.03
2022-11-02T19:01:29.097Z,3.80
2022-11-02T19:03:59.520Z,3.90
2022-11-02T19:06:46.835Z,3.97
2022-11-02T19:09:18.975Z,3.60
2022-11-02T19:11:48.916Z,3.73
2022-11-02T19:14:17.091Z,3.57
2022-11-02T19:16:44.805Z,3.37
2022-11-02T19:19:14.112Z,3.53
2022-11-02T19:21:41.885Z,3.97
2022-11-02T19:24:10.139Z,4.20
2022-11-02T19:26:38.272Z,3.83
2022-11-02T19:29:06.844Z,3.90
2022-11-02T19:31:35.178Z,3.90
2022-11-02T19:34:03.299Z,3.67
2022-11-02T19:36:32.593Z,3.77
2022-11-02T19:39:03.247Z,4.77
2022-11-02T19:41:32.086Z,4.60
2022-11-02T19:43:59.889Z,4.17
2022-11-02T19:46:28.554Z,4.83
2022-11-02T19:48:57.892Z,12.35
2022-11-02T19:51:27.309Z,6.77
2022-11-02T19:53:58.219Z,6.50
2022-11-02T19:56:27.604Z,5.80
2022-11-02T19:58:56.187Z,5.13
2022-11-02T20:01:25.798Z,4.30
2022-11-02T20:03:54.351Z,4.00
2022-11-02T20:06:24.146Z,4.33
2022-11-02T20:08:52.552Z,4.27
2022-11-02T20:11:21.889Z,3.77
2022-11-02T20:13:50.275Z,4.00
2022-11-02T20:16:19.817Z,4.20
2022-11-02T20:18:49.639Z,4.07
2022-11-02T20:21:19.320Z,4.33
2022-11-02T20:23:48.075Z,4.63
2022-11-02T20:26:17.729Z,4.80
2022-11-02T20:28:48.362Z,3.97
2022-11-02T20:31:17.639Z,3.97
2022-11-02T20:33:46.439Z,4.03
2022-11-02T20:36:14.632Z,4.40
2022-11-02T20:38:42.747Z,4.33
2022-11-02T20:41:12.797Z,4.47
2022-11-02T20:43:42.659Z,7.40
2022-11-02T20:49:13.838Z,5.03
2022-11-02T20:51:50.535Z,4.77
2022-11-02T20:54:19.668Z,5.13
2022-11-02T20:56:48.111Z,4.80
2022-11-02T20:59:16.363Z,4.57
2022-11-02T21:01:45.757Z,4.83
2022-11-02T21:04:19.747Z,4.57
2022-11-02T21:06:48.385Z,5.23
2022-11-02T21:09:16.200Z,4.70
2022-11-02T21:12:01.442Z,5.20
2022-11-02T21:14:29.153Z,4.87
2022-11-02T21:16:58.159Z,4.80
2022-11-02T21:19:25.893Z,4.23
2022-11-02T21:21:59.117Z,8.70
2022-11-02T21:24:27.417Z,4.83
2022-11-02T21:26:55.163Z,4.57
2022-11-02T21:29:22.928Z,4.90
2022-11-02T21:31:50.701Z,14.40
2022-11-02T21:34:19.742Z,16.73
2022-11-02T21:36:48.247Z,8.47
2022-11-02T21:39:16.040Z,5.97
2022-11-02T21:41:43.947Z,5.03
2022-11-02T21:44:12.563Z,4.63
2022-11-02T21:46:40.281Z,5.10
2022-11-02T21:49:08.107Z,4.97
2022-11-02T21:51:38.411Z,4.63
2022-11-02T21:54:06.238Z,4.83
2022-11-02T21:56:35.845Z,4.57
2022-11-02T21:59:05.181Z,4.70
2022-11-02T22:01:48.284Z,4.43
2022-11-02T22:04:19.469Z,4.17
2022-11-02T22:06:48.689Z,4.93
2022-11-02T22:09:16.442Z,4.80
2022-11-02T22:11:44.943Z,4.70
2022-11-02T22:14:13.926Z,4.87
2022-11-02T22:16:43.494Z,4.67
2022-11-02T22:19:13.056Z,5.07
2022-11-02T22:21:42.922Z,4.53
2022-11-02T22:24:12.941Z,4.60
2022-11-02T22:26:41.520Z,4.83
2022-11-02T22:29:09.678Z,4.80
2022-11-02T22:31:39.770Z,4.47
2022-11-02T22:34:10.297Z,4.57
2022-11-02T22:36:39.681Z,4.90
2022-11-02T22:39:07.757Z,4.80
2022-11-02T22:41:37.885Z,4.40
2022-11-02T22:44:07.890Z,4.90
2022-11-02T22:46:37.734Z,4.37
2022-11-02T22:49:05.973Z,4.67
2022-11-02T22:51:35.325Z,4.90
2022-11-02T22:54:04.174Z,5.10
2022-11-02T22:56:32.307Z,4.70
2022-11-02T22:59:01.895Z,5.47
2022-11-02T23:01:31.928Z,4.77
2022-11-02T23:04:01.152Z,4.53
2022-11-02T23:06:29.408Z,4.97
2022-11-02T23:08:58.506Z,5.07
2022-11-02T23:11:27.405Z,4.63
2022-11-02T23:13:57.537Z,5.10
2022-11-02T23:16:28.509Z,4.83
2022-11-02T23:19:20.316Z,4.90
2022-11-02T23:22:09.099Z,4.23
2022-11-02T23:24:54.380Z,4.63
2022-11-02T23:27:22.099Z,4.60
2022-11-02T23:30:07.383Z,4.40
2022-11-02T23:32:36.657Z,4.47
2022-11-02T23:35:22.735Z,4.53
2022-11-02T23:37:50.499Z,4.20
2022-11-02T23:40:19.933Z,4.03
2022-11-02T23:42:47.629Z,4.53
2022-11-02T23:45:15.438Z,4.30
2022-11-02T23:48:01.254Z,4.40
2022-11-02T23:50:49.303Z,4.50
2022-11-02T23:53:36.168Z,4.20
2022-11-02T23:56:22.060Z,4.10
2022-11-02T23:59:06.165Z,4.20
